sensor_id;sensor_type;location;lat;lon;timestamp;pressure;altitude;pressure_sealevel;temperature;humidity
21203;BME280;10759;51.982;9.232;2023-07-20T00:00:47;100102.63;;;16.81;100.00
21203;BME280;10759;51.982;9.232;2023-07-20T00:03:17;100097.91;;;16.84;100.00
21203;BME280;10759;51.982;9.232;2023-07-20T00:05:46;100091.19;;;16.90;100.00
21203;BME280;10759;51.982;9.232;2023-07-20T00:08:14;100093.25;;;16.86;100.00
21203;BME280;10759;51.982;9.232;2023-07-20T00:10:43;100094.91;;;16.74;100.00
21203;BME280;10759;51.982;9.232;2023-07-20T00:13:12;100093.59;;;16.67;100.00
21203;BME280;10759;51.982;9.232;2023-07-20T00:15:40;100082.13;;;16.64;100.00
21203;BME280;10759;51.982;9.232;2023-07-20T00:18:08;100084.38;;;16.57;100.00
21203;BME280;10759;51.982;9.232;2023-07-20T00:20:36;100060.75;;;16.46;100.00
21203;BME280;10759;51.982;9.232;2023-07-20T00:23:03;100080.59;;;16.60;100.00
21203;BME280;10759;51.982;9.232;2023-07-20T00:25:32;100080.47;;;16.61;100.00
21203;BME280;10759;51.982;9.232;2023-07-20T00:28:00;100080.91;;;16.55;100.00
21203;BME280;10759;51.982;9.232;2023-07-20T00:30:29;100079.44;;;16.64;100.00
21203;BME280;10759;51.982;9.232;2023-07-20T00:32:58;100092.59;;;16.56;100.00
21203;BME280;10759;51.982;9.232;2023-07-20T00:35:26;100078.09;;;16.57;100.00
21203;BME280;10759;51.982;9.232;2023-07-20T00:37:54;100084.38;;;16.57;100.00
21203;BME280;10759;51.982;9.232;2023-07-20T00:40:22;100075.97;;;16.62;100.00
21203;BME280;10759;51.982;9.232;2023-07-20T00:42:50;100077.78;;;16.61;100.00
21203;BME280;10759;51.982;9.232;2023-07-20T00:45:22;100074.63;;;16.55;100.00
21203;BME280;10759;51.982;9.232;2023-07-20T00:47:52;100067.91;;;16.47;100.00
21203;BME280;10759;51.982;9.232;2023-07-20T00:50:21;100061.19;;;16.40;100.00
21203;BME280;10759;51.982;9.232;2023-07-20T00:52:49;100081.72;;;16.43;100.00
21203;BME280;10759;51.982;9.232;2023-07-20T00:55:18;100071.69;;;16.45;100.00
21203;BME280;10759;51.982;9.232;2023-07-20T00:57:46;100077.78;;;16.34;100.00
21203;BME280;10759;51.982;9.232;2023-07-20T01:00:15;100081.47;;;16.33;100.00
21203;BME280;10759;51.982;9.232;2023-07-20T01:02:43;100077.47;;;16.39;100.00
21203;BME280;10759;51.982;9.232;2023-07-20T01:05:13;100082.59;;;16.43;100.00
21203;BME280;10759;51.982;9.232;2023-07-20T01:07:48;100085.28;;;16.43;100.00
21203;BME280;10759;51.982;9.232;2023-07-20T01:10:25;100083.91;;;16.23;100.00
21203;BME280;10759;51.982;9.232;2023-07-20T01:12:55;100078.03;;;16.17;100.00
21203;BME280;10759;51.982;9.232;2023-07-20T01:15:24;100079.84;;;16.03;100.00
21203;BME280;10759;51.982;9.232;2023-07-20T01:17:52;100079.53;;;16.08;100.00
21203;BME280;10759;51.982;9.232;2023-07-20T01:20:22;100080.00;;;16.15;100.00
21203;BME280;10759;51.982;9.232;2023-07-20T01:23:05;100069.75;;;16.20;100.00
21203;BME280;10759;51.982;9.232;2023-07-20T01:25:55;100027.63;;;16.03;100.00
21203;BME280;10759;51.982;9.232;2023-07-20T01:28:39;100033.47;;;16.09;100.00
21203;BME280;10759;51.982;9.232;2023-07-20T01:31:23;100074.03;;;16.37;100.00
21203;BME280;10759;51.982;9.232;2023-07-20T01:33:53;100076.84;;;16.35;100.00
21203;BME280;10759;51.982;9.232;2023-07-20T01:36:24;100085.53;;;16.53;100.00
21203;BME280;10759;51.982;9.232;2023-07-20T01:38:53;100081.97;;;16.52;100.00
21203;BME280;10759;51.982;9.232;2023-07-20T01:41:22;99989.75;;;15.90;100.00
21203;BME280;10759;51.982;9.232;2023-07-20T01:43:50;100083.00;;;16.37;100.00
21203;BME280;10759;51.982;9.232;2023-07-20T01:46:18;100076.75;;;16.37;100.00
21203;BME280;10759;51.982;9.232;2023-07-20T01:48:49;100075.78;;;16.38;100.00
21203;BME280;10759;51.982;9.232;2023-07-20T01:51:17;100076.94;;;16.34;100.00
21203;BME280;10759;51.982;9.232;2023-07-20T01:53:47;100080.50;;;16.34;100.00
21203;BME280;10759;51.982;9.232;2023-07-20T01:56:15;100059.59;;;16.23;100.00
21203;BME280;10759;51.982;9.232;2023-07-20T01:58:43;100050.91;;;16.18;100.00
21203;BME280;10759;51.982;9.232;2023-07-20T02:01:11;100051.78;;;16.19;100.00
21203;BME280;10759;51.982;9.232;2023-07-20T02:03:39;100069.47;;;16.24;100.00
21203;BME280;10759;51.982;9.232;2023-07-20T02:06:09;100062.38;;;16.22;100.00
21203;BME280;10759;51.982;9.232;2023-07-20T02:08:37;100062.50;;;16.20;100.00
21203;BME280;10759;51.982;9.232;2023-07-20T02:11:05;100072.84;;;16.14;100.00
21203;BME280;10759;51.982;9.232;2023-07-20T02:13:32;100064.25;;;16.07;100.00
21203;BME280;10759;51.982;9.232;2023-07-20T02:16:00;100021.41;;;15.88;100.00
21203;BME280;10759;51.982;9.232;2023-07-20T02:18:29;100064.66;;;16.15;100.00
21203;BME280;10759;51.982;9.232;2023-07-20T02:20:57;100055.22;;;16.08;100.00
21203;BME280;10759;51.982;9.232;2023-07-20T02:23:27;100069.63;;;16.21;100.00
21203;BME280;10759;51.982;9.232;2023-07-20T02:25:55;100070.94;;;16.01;100.00
21203;BME280;10759;51.982;9.232;2023-07-20T02:28:23;100067.28;;;16.02;100.00
21203;BME280;10759;51.982;9.232;2023-07-20T02:30:51;100063.63;;;16.03;100.00
21203;BME280;10759;51.982;9.232;2023-07-20T02:33:20;100063.63;;;16.03;100.00
21203;BME280;10759;51.982;9.232;2023-07-20T02:35:48;100066.63;;;15.99;100.00
21203;BME280;10759;51.982;9.232;2023-07-20T02:38:17;100062.38;;;15.95;100.00
21203;BME280;10759;51.982;9.232;2023-07-20T02:40:47;100062.69;;;15.90;100.00
21203;BME280;10759;51.982;9.232;2023-07-20T02:43:15;100063.56;;;15.91;100.00
21203;BME280;10759;51.982;9.232;2023-07-20T02:45:44;100008.69;;;15.61;100.00
21203;BME280;10759;51.982;9.232;2023-07-20T02:48:13;100060.56;;;15.95;100.00
21203;BME280;10759;51.982;9.232;2023-07-20T02:50:43;99997.97;;;15.60;100.00
21203;BME280;10759;51.982;9.232;2023-07-20T02:53:11;100036.56;;;15.76;100.00
21203;BME280;10759;51.982;9.232;2023-07-20T02:55:39;100065.97;;;15.95;100.00
21203;BME280;10759;51.982;9.232;2023-07-20T02:58:08;100068.47;;;15.98;100.00
21203;BME280;10759;51.982;9.232;2023-07-20T03:00:36;100055.31;;;15.92;100.00
21203;BME280;10759;51.982;9.232;2023-07-20T03:03:04;100010.59;;;15.59;100.00
21203;BME280;10759;51.982;9.232;2023-07-20T03:05:36;100065.22;;;15.79;100.00
21203;BME280;10759;51.982;9.232;2023-07-20T03:08:06;100031.34;;;15.59;100.00
21203;BME280;10759;51.982;9.232;2023-07-20T03:10:38;100050.75;;;15.65;100.00
21203;BME280;10759;51.982;9.232;2023-07-20T03:13:06;100001.59;;;15.32;100.00
21203;BME280;10759;51.982;9.232;2023-07-20T03:15:36;100071.38;;;15.66;100.00
21203;BME280;10759;51.982;9.232;2023-07-20T03:18:04;100070.13;;;15.43;100.00
21203;BME280;10759;51.982;9.232;2023-07-20T03:20:32;100063.97;;;15.56;100.00
21203;BME280;10759;51.982;9.232;2023-07-20T03:23:00;100065.78;;;15.70;100.00
21203;BME280;10759;51.982;9.232;2023-07-20T03:25:28;100058.16;;;15.62;100.00
21203;BME280;10759;51.982;9.232;2023-07-20T03:27:56;100061.56;;;15.51;100.00
21203;BME280;10759;51.982;9.232;2023-07-20T03:30:25;100062.13;;;15.56;100.00
21203;BME280;10759;51.982;9.232;2023-07-20T03:32:54;100068.66;;;15.66;100.00
21203;BME280;10759;51.982;9.232;2023-07-20T03:35:22;100059.59;;;15.67;100.00
21203;BME280;10759;51.982;9.232;2023-07-20T03:37:50;100051.81;;;15.63;100.00
21203;BME280;10759;51.982;9.232;2023-07-20T03:40:18;100047.47;;;15.46;100.00
21203;BME280;10759;51.982;9.232;2023-07-20T03:42:46;100041.31;;;15.44;100.00
21203;BME280;10759;51.982;9.232;2023-07-20T03:45:13;100050.53;;;15.68;100.00
21203;BME280;10759;51.982;9.232;2023-07-20T03:47:41;100053.44;;;15.80;100.00
21203;BME280;10759;51.982;9.232;2023-07-20T03:50:12;100047.63;;;15.86;100.00
21203;BME280;10759;51.982;9.232;2023-07-20T03:52:40;100041.66;;;15.81;100.00
21203;BME280;10759;51.982;9.232;2023-07-20T03:55:08;100051.25;;;15.99;100.00
21203;BME280;10759;51.982;9.232;2023-07-20T03:57:37;100038.97;;;15.81;100.00
21203;BME280;10759;51.982;9.232;2023-07-20T04:00:06;100055.75;;;15.86;100.00
21203;BME280;10759;51.982;9.232;2023-07-20T04:02:38;100030.69;;;15.70;100.00
21203;BME280;10759;51.982;9.232;2023-07-20T04:05:07;100055.38;;;15.78;100.00
21203;BME280;10759;51.982;9.232;2023-07-20T04:07:36;100063.28;;;15.81;100.00
21203;BME280;10759;51.982;9.232;2023-07-20T04:10:04;100058.75;;;15.81;100.00
21203;BME280;10759;51.982;9.232;2023-07-20T04:12:34;100080.22;;;15.97;100.00
21203;BME280;10759;51.982;9.232;2023-07-20T04:15:02;100085.44;;;16.00;100.00
21203;BME280;10759;51.982;9.232;2023-07-20T04:17:30;99988.09;;;15.17;100.00
21203;BME280;10759;51.982;9.232;2023-07-20T04:19:58;100081.41;;;15.64;100.00
21203;BME280;10759;51.982;9.232;2023-07-20T04:22:26;100090.97;;;15.56;100.00
21203;BME280;10759;51.982;9.232;2023-07-20T04:24:56;99977.47;;;14.86;100.00
21203;BME280;10759;51.982;9.232;2023-07-20T04:27:24;100100.31;;;15.50;100.00
21203;BME280;10759;51.982;9.232;2023-07-20T04:29:53;100056.84;;;15.26;100.00
21203;BME280;10759;51.982;9.232;2023-07-20T04:32:21;100080.25;;;15.40;100.00
21203;BME280;10759;51.982;9.232;2023-07-20T04:34:48;100060.69;;;15.22;100.00
21203;BME280;10759;51.982;9.232;2023-07-20T04:37:17;100089.50;;;15.21;100.00
21203;BME280;10759;51.982;9.232;2023-07-20T04:39:47;100093.38;;;15.32;100.00
21203;BME280;10759;51.982;9.232;2023-07-20T04:42:17;100107.94;;;15.43;100.00
21203;BME280;10759;51.982;9.232;2023-07-20T04:44:47;100093.16;;;15.35;100.00
21203;BME280;10759;51.982;9.232;2023-07-20T04:47:15;100100.59;;;15.45;100.00
21203;BME280;10759;51.982;9.232;2023-07-20T04:49:43;100101.06;;;15.52;100.00
21203;BME280;10759;51.982;9.232;2023-07-20T04:52:11;100056.44;;;15.32;100.00
21203;BME280;10759;51.982;9.232;2023-07-20T04:54:39;100104.63;;;15.53;100.00
21203;BME280;10759;51.982;9.232;2023-07-20T04:57:11;100110.34;;;15.62;100.00
21203;BME280;10759;51.982;9.232;2023-07-20T04:59:45;100113.44;;;15.56;100.00
21203;BME280;10759;51.982;9.232;2023-07-20T05:02:13;100117.84;;;15.57;100.00
21203;BME280;10759;51.982;9.232;2023-07-20T05:04:44;100117.06;;;15.55;100.00
21203;BME280;10759;51.982;9.232;2023-07-20T05:07:12;100112.88;;;15.65;100.00
21203;BME280;10759;51.982;9.232;2023-07-20T05:09:40;100116.78;;;15.60;100.00
21203;BME280;10759;51.982;9.232;2023-07-20T05:12:08;100121.81;;;15.52;100.00
21203;BME280;10759;51.982;9.232;2023-07-20T05:14:39;100121.31;;;15.45;100.00
21203;BME280;10759;51.982;9.232;2023-07-20T05:17:09;100132.63;;;15.52;100.00
21203;BME280;10759;51.982;9.232;2023-07-20T05:19:37;100125.78;;;15.60;100.00
21203;BME280;10759;51.982;9.232;2023-07-20T05:22:09;100104.19;;;15.46;100.00
21203;BME280;10759;51.982;9.232;2023-07-20T05:24:38;100127.50;;;15.61;100.00
21203;BME280;10759;51.982;9.232;2023-07-20T05:27:06;100125.38;;;15.52;100.00
21203;BME280;10759;51.982;9.232;2023-07-20T05:29:34;100124.44;;;15.53;100.00
21203;BME280;10759;51.982;9.232;2023-07-20T05:32:02;100116.13;;;15.42;100.00
21203;BME280;10759;51.982;9.232;2023-07-20T05:34:32;100132.06;;;15.61;100.00
21203;BME280;10759;51.982;9.232;2023-07-20T05:37:00;100124.44;;;15.53;100.00
21203;BME280;10759;51.982;9.232;2023-07-20T05:39:28;100134.75;;;15.46;100.00
21203;BME280;10759;51.982;9.232;2023-07-20T05:41:56;100105.00;;;15.18;100.00
21203;BME280;10759;51.982;9.232;2023-07-20T05:44:24;100109.56;;;15.32;100.00
21203;BME280;10759;51.982;9.232;2023-07-20T05:46:52;100144.09;;;15.55;100.00
21203;BME280;10759;51.982;9.232;2023-07-20T05:49:24;100140.03;;;15.62;100.00
21203;BME280;10759;51.982;9.232;2023-07-20T05:51:54;100094.63;;;15.26;100.00
21203;BME280;10759;51.982;9.232;2023-07-20T05:54:22;100151.44;;;15.53;100.00
21203;BME280;10759;51.982;9.232;2023-07-20T05:56:49;100138.72;;;15.70;100.00
21203;BME280;10759;51.982;9.232;2023-07-20T05:59:18;100147.56;;;15.57;100.00
21203;BME280;10759;51.982;9.232;2023-07-20T06:01:46;100148.72;;;15.67;100.00
21203;BME280;10759;51.982;9.232;2023-07-20T06:04:15;100151.91;;;15.60;100.00
21203;BME280;10759;51.982;9.232;2023-07-20T06:06:43;100161.03;;;15.73;100.00
21203;BME280;10759;51.982;9.232;2023-07-20T06:09:12;100154.94;;;15.70;100.00
21203;BME280;10759;51.982;9.232;2023-07-20T06:11:41;100109.28;;;15.51;100.00
21203;BME280;10759;51.982;9.232;2023-07-20T06:14:08;100162.47;;;15.93;100.00
21203;BME280;10759;51.982;9.232;2023-07-20T06:16:37;100143.84;;;15.88;100.00
21203;BME280;10759;51.982;9.232;2023-07-20T06:19:05;100168.03;;;16.04;100.00
21203;BME280;10759;51.982;9.232;2023-07-20T06:21:33;100167.88;;;16.07;100.00
21203;BME280;10759;51.982;9.232;2023-07-20T06:24:01;100164.97;;;15.96;100.00
21203;BME280;10759;51.982;9.232;2023-07-20T06:26:30;100166.31;;;16.03;100.00
21203;BME280;10759;51.982;9.232;2023-07-20T06:29:05;100169.66;;;16.07;100.00
21203;BME280;10759;51.982;9.232;2023-07-20T06:31:34;100169.94;;;16.31;100.00
21203;BME280;10759;51.982;9.232;2023-07-20T06:34:02;100184.00;;;16.36;100.00
21203;BME280;10759;51.982;9.232;2023-07-20T06:36:31;100186.69;;;16.50;100.00
21203;BME280;10759;51.982;9.232;2023-07-20T06:38:59;100193.50;;;16.29;100.00
21203;BME280;10759;51.982;9.232;2023-07-20T06:41:31;100190.22;;;16.24;100.00
21203;BME280;10759;51.982;9.232;2023-07-20T06:44:02;100195.16;;;16.17;100.00
21203;BME280;10759;51.982;9.232;2023-07-20T06:46:31;100188.78;;;16.18;100.00
21203;BME280;10759;51.982;9.232;2023-07-20T06:48:59;100200.25;;;16.22;100.00
21203;BME280;10759;51.982;9.232;2023-07-20T06:51:30;100118.25;;;15.65;100.00
21203;BME280;10759;51.982;9.232;2023-07-20T06:53:58;100186.28;;;16.15;100.00
21203;BME280;10759;51.982;9.232;2023-07-20T06:56:26;100196.03;;;16.32;100.00
21203;BME280;10759;51.982;9.232;2023-07-20T06:58:58;100188.28;;;16.26;100.00
21203;BME280;10759;51.982;9.232;2023-07-20T07:01:27;100175.91;;;16.36;100.00
21203;BME280;10759;51.982;9.232;2023-07-20T07:03:55;100193.06;;;16.49;100.00
21203;BME280;10759;51.982;9.232;2023-07-20T07:06:23;100193.06;;;16.49;100.00
21203;BME280;10759;51.982;9.232;2023-07-20T07:08:52;100204.19;;;16.45;100.00
21203;BME280;10759;51.982;9.232;2023-07-20T07:11:20;100207.56;;;16.48;100.00
21203;BME280;10759;51.982;9.232;2023-07-20T07:13:49;100211.25;;;16.33;100.00
21203;BME280;10759;51.982;9.232;2023-07-20T07:16:19;100209.91;;;16.26;100.00
21203;BME280;10759;51.982;9.232;2023-07-20T07:18:49;100222.34;;;16.43;100.00
21203;BME280;10759;51.982;9.232;2023-07-20T07:21:18;100168.13;;;16.17;100.00
21203;BME280;10759;51.982;9.232;2023-07-20T07:23:46;100155.88;;;16.12;100.00
21203;BME280;10759;51.982;9.232;2023-07-20T07:26:14;100222.22;;;16.59;100.00
21203;BME280;10759;51.982;9.232;2023-07-20T07:28:43;100232.78;;;16.90;100.00
21203;BME280;10759;51.982;9.232;2023-07-20T07:31:11;99998.53;;;15.65;100.00
21203;BME280;10759;51.982;9.232;2023-07-20T07:33:40;100231.44;;;17.10;100.00
21203;BME280;10759;51.982;9.232;2023-07-20T07:36:08;100233.69;;;17.44;100.00
21203;BME280;10759;51.982;9.232;2023-07-20T07:38:36;100220.06;;;17.71;100.00
21203;BME280;10759;51.982;9.232;2023-07-20T07:41:24;100224.44;;;18.12;98.57
21203;BME280;10759;51.982;9.232;2023-07-20T07:43:52;100228.56;;;18.17;95.50
21203;BME280;10759;51.982;9.232;2023-07-20T07:46:20;100226.59;;;18.19;96.64
21203;BME280;10759;51.982;9.232;2023-07-20T07:48:50;100229.63;;;18.28;95.94
21203;BME280;10759;51.982;9.232;2023-07-20T07:51:18;100231.66;;;18.37;95.63
21203;BME280;10759;51.982;9.232;2023-07-20T07:53:46;100230.03;;;18.34;94.72
21203;BME280;10759;51.982;9.232;2023-07-20T07:56:16;100233.38;;;18.38;94.86
21203;BME280;10759;51.982;9.232;2023-07-20T07:58:49;100241.66;;;18.23;90.61
21203;BME280;10759;51.982;9.232;2023-07-20T08:01:18;100246.78;;;18.15;84.87
21203;BME280;10759;51.982;9.232;2023-07-20T08:03:46;100241.84;;;18.33;86.17
21203;BME280;10759;51.982;9.232;2023-07-20T08:06:16;100238.91;;;18.49;83.56
21203;BME280;10759;51.982;9.232;2023-07-20T08:08:44;100243.13;;;18.53;86.69
21203;BME280;10759;51.982;9.232;2023-07-20T08:11:12;100120.69;;;17.97;83.64
21203;BME280;10759;51.982;9.232;2023-07-20T08:13:41;100247.50;;;18.93;85.44
21203;BME280;10759;51.982;9.232;2023-07-20T08:16:09;100256.63;;;19.16;83.90
21203;BME280;10759;51.982;9.232;2023-07-20T08:18:37;100258.06;;;19.08;77.62
21203;BME280;10759;51.982;9.232;2023-07-20T08:21:05;100253.38;;;19.11;81.11
21203;BME280;10759;51.982;9.232;2023-07-20T08:23:35;100249.63;;;19.00;79.29
21203;BME280;10759;51.982;9.232;2023-07-20T08:26:03;100221.47;;;19.01;82.37
21203;BME280;10759;51.982;9.232;2023-07-20T08:28:31;100252.44;;;19.23;77.09
21203;BME280;10759;51.982;9.232;2023-07-20T08:30:59;100251.75;;;19.32;78.99
21203;BME280;10759;51.982;9.232;2023-07-20T08:33:27;100254.59;;;19.30;77.64
21203;BME280;10759;51.982;9.232;2023-07-20T08:35:56;100258.63;;;18.77;77.59
21203;BME280;10759;51.982;9.232;2023-07-20T08:38:24;100234.19;;;18.77;80.11
21203;BME280;10759;51.982;9.232;2023-07-20T08:40:53;100257.78;;;19.00;78.27
21203;BME280;10759;51.982;9.232;2023-07-20T08:43:22;100253.56;;;18.96;76.90
21203;BME280;10759;51.982;9.232;2023-07-20T08:45:51;100260.63;;;19.34;74.12
21203;BME280;10759;51.982;9.232;2023-07-20T08:48:20;100244.72;;;19.05;76.37
21203;BME280;10759;51.982;9.232;2023-07-20T08:50:49;100257.19;;;19.08;77.42
21203;BME280;10759;51.982;9.232;2023-07-20T08:53:18;100262.97;;;19.03;73.88
21203;BME280;10759;51.982;9.232;2023-07-20T08:55:48;100129.88;;;18.44;75.74
21203;BME280;10759;51.982;9.232;2023-07-20T08:58:19;100261.34;;;19.25;76.90
21203;BME280;10759;51.982;9.232;2023-07-20T09:00:47;100262.28;;;19.13;72.23
21203;BME280;10759;51.982;9.232;2023-07-20T09:03:17;100260.44;;;19.13;72.67
21203;BME280;10759;51.982;9.232;2023-07-20T09:05:46;100264.84;;;19.38;68.55
21203;BME280;10759;51.982;9.232;2023-07-20T09:08:14;100262.16;;;19.73;68.91
21203;BME280;10759;51.982;9.232;2023-07-20T09:10:42;100258.25;;;19.89;70.44
21203;BME280;10759;51.982;9.232;2023-07-20T09:13:14;100259.75;;;20.27;75.61
21203;BME280;10759;51.982;9.232;2023-07-20T09:15:47;100252.22;;;19.97;71.08
21203;BME280;10759;51.982;9.232;2023-07-20T09:18:24;100256.28;;;19.56;71.07
21203;BME280;10759;51.982;9.232;2023-07-20T09:20:52;100225.72;;;19.41;71.66
21203;BME280;10759;51.982;9.232;2023-07-20T09:23:29;100261.53;;;19.70;66.81
21203;BME280;10759;51.982;9.232;2023-07-20T09:25:58;100265.63;;;19.51;59.60
21203;BME280;10759;51.982;9.232;2023-07-20T09:28:26;100259.25;;;19.64;63.05
21203;BME280;10759;51.982;9.232;2023-07-20T09:30:56;100258.03;;;19.57;61.71
21203;BME280;10759;51.982;9.232;2023-07-20T09:33:25;100264.44;;;19.56;60.65
21203;BME280;10759;51.982;9.232;2023-07-20T09:35:54;100255.09;;;19.71;63.44
21203;BME280;10759;51.982;9.232;2023-07-20T09:38:27;100227.38;;;19.66;65.05
21203;BME280;10759;51.982;9.232;2023-07-20T09:41:20;100261.09;;;19.63;66.65
21203;BME280;10759;51.982;9.232;2023-07-20T09:43:51;100248.97;;;19.56;69.54
21203;BME280;10759;51.982;9.232;2023-07-20T09:46:21;100263.97;;;19.62;65.95
21203;BME280;10759;51.982;9.232;2023-07-20T09:48:52;100234.88;;;19.51;63.83
21203;BME280;10759;51.982;9.232;2023-07-20T09:51:23;100260.09;;;19.88;59.18
21203;BME280;10759;51.982;9.232;2023-07-20T09:53:52;100255.53;;;19.89;60.38
21203;BME280;10759;51.982;9.232;2023-07-20T09:56:21;100261.84;;;19.89;60.04
21203;BME280;10759;51.982;9.232;2023-07-20T09:58:50;100259.38;;;20.20;59.23
21203;BME280;10759;51.982;9.232;2023-07-20T10:01:22;100270.03;;;20.46;61.52
21203;BME280;10759;51.982;9.232;2023-07-20T10:03:53;100265.47;;;20.24;60.16
21203;BME280;10759;51.982;9.232;2023-07-20T10:06:23;100206.47;;;20.02;60.79
21203;BME280;10759;51.982;9.232;2023-07-20T10:08:53;100264.81;;;20.76;59.43
21203;BME280;10759;51.982;9.232;2023-07-20T10:11:22;100236.25;;;20.71;54.56
21203;BME280;10759;51.982;9.232;2023-07-20T10:13:55;100260.47;;;21.40;57.23
21203;BME280;10759;51.982;9.232;2023-07-20T10:16:29;100246.94;;;21.06;55.49
21203;BME280;10759;51.982;9.232;2023-07-20T10:19:04;100258.03;;;20.71;58.27
21203;BME280;10759;51.982;9.232;2023-07-20T10:21:47;100263.84;;;20.32;58.70
21203;BME280;10759;51.982;9.232;2023-07-20T10:24:22;100264.97;;;20.75;60.36
21203;BME280;10759;51.982;9.232;2023-07-20T10:26:51;100264.81;;;20.88;58.46
21203;BME280;10759;51.982;9.232;2023-07-20T10:29:20;100264.38;;;21.04;53.77
21203;BME280;10759;51.982;9.232;2023-07-20T10:31:49;100257.53;;;21.20;54.59
21203;BME280;10759;51.982;9.232;2023-07-20T10:34:21;100244.09;;;20.96;51.59
21203;BME280;10759;51.982;9.232;2023-07-20T10:36:50;100261.84;;;20.91;51.46
21203;BME280;10759;51.982;9.232;2023-07-20T10:39:22;100244.53;;;20.69;52.83
21203;BME280;10759;51.982;9.232;2023-07-20T10:41:50;100253.44;;;20.83;53.07
21203;BME280;10759;51.982;9.232;2023-07-20T10:44:27;100253.41;;;20.94;52.73
21203;BME280;10759;51.982;9.232;2023-07-20T10:47:00;100259.38;;;20.88;48.39
21203;BME280;10759;51.982;9.232;2023-07-20T10:49:32;100242.06;;;20.77;50.91
21203;BME280;10759;51.982;9.232;2023-07-20T10:52:04;100248.22;;;21.23;50.26
21203;BME280;10759;51.982;9.232;2023-07-20T10:54:34;100129.91;;;20.29;48.73
21203;BME280;10759;51.982;9.232;2023-07-20T10:57:29;100222.38;;;20.74;51.62
21203;BME280;10759;51.982;9.232;2023-07-20T11:00:08;100249.94;;;20.92;50.94
21203;BME280;10759;51.982;9.232;2023-07-20T11:02:47;100252.16;;;20.98;45.34
21203;BME280;10759;51.982;9.232;2023-07-20T11:05:37;100248.63;;;21.18;47.66
21203;BME280;10759;51.982;9.232;2023-07-20T11:08:10;100240.72;;;21.15;48.08
21203;BME280;10759;51.982;9.232;2023-07-20T11:10:38;100244.72;;;21.32;46.40
21203;BME280;10759;51.982;9.232;2023-07-20T11:13:26;100250.22;;;21.53;47.67
21203;BME280;10759;51.982;9.232;2023-07-20T11:16:03;100239.13;;;21.34;48.40
21203;BME280;10759;51.982;9.232;2023-07-20T11:18:37;100241.22;;;21.09;48.30
21203;BME280;10759;51.982;9.232;2023-07-20T11:21:10;100245.91;;;20.64;47.45
21203;BME280;10759;51.982;9.232;2023-07-20T11:23:39;100241.47;;;21.06;48.43
21203;BME280;10759;51.982;9.232;2023-07-20T11:26:07;100241.72;;;21.14;48.31
21203;BME280;10759;51.982;9.232;2023-07-20T11:28:36;100238.81;;;20.95;48.51
21203;BME280;10759;51.982;9.232;2023-07-20T11:31:04;100231.03;;;21.22;51.22
21203;BME280;10759;51.982;9.232;2023-07-20T11:33:32;100231.94;;;21.12;47.77
21203;BME280;10759;51.982;9.232;2023-07-20T11:36:02;100225.03;;;20.96;48.84
21203;BME280;10759;51.982;9.232;2023-07-20T11:38:52;100188.84;;;20.85;49.51
21203;BME280;10759;51.982;9.232;2023-07-20T11:41:21;100229.38;;;20.99;50.11
21203;BME280;10759;51.982;9.232;2023-07-20T11:43:49;100187.00;;;20.51;50.02
21203;BME280;10759;51.982;9.232;2023-07-20T11:46:17;100218.38;;;20.89;48.16
21203;BME280;10759;51.982;9.232;2023-07-20T11:48:45;100228.47;;;21.10;50.04
21203;BME280;10759;51.982;9.232;2023-07-20T11:51:15;100221.25;;;21.20;49.27
21203;BME280;10759;51.982;9.232;2023-07-20T11:53:44;100164.72;;;20.80;50.91
21203;BME280;10759;51.982;9.232;2023-07-20T11:56:13;100216.66;;;21.20;48.86
21203;BME280;10759;51.982;9.232;2023-07-20T11:58:43;100222.25;;;21.72;49.86
21203;BME280;10759;51.982;9.232;2023-07-20T12:01:12;100225.03;;;21.82;47.42
21203;BME280;10759;51.982;9.232;2023-07-20T12:03:41;100197.56;;;21.53;47.25
21203;BME280;10759;51.982;9.232;2023-07-20T12:06:10;100221.28;;;21.83;48.90
21203;BME280;10759;51.982;9.232;2023-07-20T12:08:41;100217.41;;;21.76;50.71
21203;BME280;10759;51.982;9.232;2023-07-20T12:11:09;100208.22;;;21.56;49.98
21203;BME280;10759;51.982;9.232;2023-07-20T12:13:38;100208.28;;;21.44;45.82
21203;BME280;10759;51.982;9.232;2023-07-20T12:16:09;100215.88;;;21.30;48.20
21203;BME280;10759;51.982;9.232;2023-07-20T12:18:38;100164.44;;;21.15;47.82
21203;BME280;10759;51.982;9.232;2023-07-20T12:21:06;100210.41;;;21.41;47.25
21203;BME280;10759;51.982;9.232;2023-07-20T12:23:36;100198.50;;;21.42;47.83
21203;BME280;10759;51.982;9.232;2023-07-20T12:26:10;100214.31;;;21.90;49.31
21203;BME280;10759;51.982;9.232;2023-07-20T12:28:41;100188.38;;;21.75;49.49
21203;BME280;10759;51.982;9.232;2023-07-20T12:31:10;100198.47;;;22.15;50.90
21203;BME280;10759;51.982;9.232;2023-07-20T12:33:39;100203.97;;;22.45;47.73
21203;BME280;10759;51.982;9.232;2023-07-20T12:36:08;100195.66;;;22.57;47.37
21203;BME280;10759;51.982;9.232;2023-07-20T12:38:36;100187.50;;;22.76;44.82
21203;BME280;10759;51.982;9.232;2023-07-20T12:41:04;100193.53;;;22.70;43.75
21203;BME280;10759;51.982;9.232;2023-07-20T12:43:34;100189.06;;;22.69;43.49
21203;BME280;10759;51.982;9.232;2023-07-20T12:46:02;100190.13;;;22.37;42.26
21203;BME280;10759;51.982;9.232;2023-07-20T12:48:30;100183.13;;;22.14;41.89
21203;BME280;10759;51.982;9.232;2023-07-20T12:50:58;100176.16;;;22.21;43.12
21203;BME280;10759;51.982;9.232;2023-07-20T12:53:26;100178.84;;;21.90;42.14
21203;BME280;10759;51.982;9.232;2023-07-20T12:55:55;100167.72;;;22.03;43.66
21203;BME280;10759;51.982;9.232;2023-07-20T12:58:23;100169.84;;;22.20;42.87